Terminal Aerodrome Forecast
Issued by NWS Atlanta, GA

Home | Current Version | Previous Version | Text Only | Print | Product List | Glossary On
Versions: 1 2 3 4 5 6 7 8 9 10 11 12 13 14 15 16 17 18 19
000
FTUS42 KFFC 242338
TAFCSG
TAF
KCSG 242338Z 2500/2524 VRB05KT P6SM VCSH SCT020 BKN060
      TEMPO 2500/2502 VRB15G25KT 4SM TSRA BKN035CB
     FM251000 30003KT 5SM -SHRA BR BKN010 OVC050
     FM251500 31005KT P6SM VCSH BKN025 PROB30 2515/2521 4SM -TSRA
      BKN035CB=

USA.gov is the U.S. government's official web portal to all federal, state and local government web resources and services.